Time;durP1;ratioP1;P1;durP2;ratioP2;P2;SDS_P1;SDS_P2;PMS_P1;PMS_P2;Temp;Humidity;BMP_temperature;BMP_pressure;BME280_temperature;BME280_humidity;BME280_pressure;Samples;Min_cycle;Max_cycle;Signal;HPM_P1;HPM_P2
2023/12/01 00:02:21;;;;;;;21.10;13.57;;;;;;;;;;5076464;28;20208;-72
2023/12/01 00:04:48;;;;;;;18.13;12.40;;;;;;;;;;5065942;28;20268;-74
2023/12/01 00:07:16;;;;;;;17.17;11.57;;;;;;;;;;5069310;28;20279;-72
2023/12/01 00:09:43;;;;;;;19.43;13.13;;;;;;;;;;5071799;28;20198;-73
2023/12/01 00:12:10;;;;;;;17.63;12.60;;;;;;;;;;5062570;28;20214;-73
2023/12/01 00:14:41;;;;;;;19.43;13.70;;;;;;;;;;5071426;28;20212;-73
2023/12/01 00:17:08;;;;;;;19.03;13.30;;;;;;;;;;5065170;28;20228;-73
2023/12/01 00:19:36;;;;;;;20.50;14.10;;;;;;;;;;5072411;28;20201;-73
2023/12/01 00:22:03;;;;;;;25.20;16.63;;;;;;;;;;5047246;28;20202;-72
2023/12/01 00:24:30;;;;;;;25.53;16.93;;;;;;;;;;5064539;28;20217;-72
2023/12/01 00:26:58;;;;;;;23.73;15.87;;;;;;;;;;5067268;28;20221;-73
2023/12/01 00:29:25;;;;;;;24.10;16.67;;;;;;;;;;5063945;28;20210;-73
2023/12/01 00:31:52;;;;;;;22.37;15.40;;;;;;;;;;5069212;28;20198;-73
2023/12/01 00:34:20;;;;;;;21.27;15.37;;;;;;;;;;5071589;28;20284;-73
2023/12/01 00:36:47;;;;;;;19.27;13.53;;;;;;;;;;5068599;28;20228;-73
2023/12/01 00:39:15;;;;;;;19.40;14.10;;;;;;;;;;5074637;28;20645;-72
2023/12/01 00:41:42;;;;;;;18.30;12.47;;;;;;;;;;5045770;28;20213;-71
2023/12/01 00:44:10;;;;;;;20.27;13.43;;;;;;;;;;5070307;28;20206;-73
2023/12/01 00:46:37;;;;;;;18.53;12.93;;;;;;;;;;5064255;28;20226;-72
2023/12/01 00:49:04;;;;;;;18.67;12.93;;;;;;;;;;5067854;28;20223;-71
2023/12/01 00:51:31;;;;;;;18.23;12.53;;;;;;;;;;5066872;28;20204;-74
2023/12/01 00:53:59;;;;;;;19.40;12.80;;;;;;;;;;5061729;28;20202;-72
2023/12/01 00:56:26;;;;;;;18.57;12.90;;;;;;;;;;5052524;28;20213;-72
2023/12/01 00:58:53;;;;;;;18.53;12.70;;;;;;;;;;5071069;28;20486;-71
2023/12/01 01:01:20;;;;;;;15.87;11.83;;;;;;;;;;5073042;28;20228;-71
2023/12/01 01:03:48;;;;;;;16.17;11.77;;;;;;;;;;5072612;28;20665;-72
2023/12/01 01:06:15;;;;;;;17.53;12.47;;;;;;;;;;5074460;28;20221;-74
2023/12/01 01:08:42;;;;;;;15.87;11.97;;;;;;;;;;5068111;28;20247;-73
2023/12/01 01:11:09;;;;;;;15.73;11.40;;;;;;;;;;5061772;28;20413;-73
2023/12/01 01:13:37;;;;;;;15.97;11.63;;;;;;;;;;5065380;28;20573;-72
2023/12/01 01:16:04;;;;;;;15.33;11.37;;;;;;;;;;5061955;28;20206;-73
2023/12/01 01:18:31;;;;;;;15.10;11.40;;;;;;;;;;5046485;28;20225;-73
2023/12/01 01:20:59;;;;;;;15.10;11.07;;;;;;;;;;5067018;28;20759;-72
2023/12/01 01:23:26;;;;;;;16.03;11.40;;;;;;;;;;5065070;28;20295;-72
2023/12/01 01:25:53;;;;;;;16.53;11.50;;;;;;;;;;5046579;28;20227;-72
2023/12/01 01:28:21;;;;;;;14.23;10.33;;;;;;;;;;5059800;28;20222;-72
2023/12/01 01:30:48;;;;;;;13.67;10.33;;;;;;;;;;5057386;28;20205;-73
2023/12/01 01:33:15;;;;;;;15.10;10.70;;;;;;;;;;5063411;28;20207;-72
2023/12/01 01:35:43;;;;;;;16.03;11.53;;;;;;;;;;5058872;28;20210;-72
2023/12/01 01:38:10;;;;;;;14.23;10.30;;;;;;;;;;5066451;28;20351;-73
2023/12/01 01:40:37;;;;;;;16.17;11.50;;;;;;;;;;5060943;28;20209;-71
2023/12/01 01:43:04;;;;;;;14.30;10.67;;;;;;;;;;5063712;28;20280;-73
2023/12/01 01:45:32;;;;;;;15.47;10.93;;;;;;;;;;5058106;28;20302;-73
2023/12/01 01:48:00;;;;;;;14.77;11.30;;;;;;;;;;5057614;28;20707;-73
2023/12/01 01:50:27;;;;;;;16.07;11.33;;;;;;;;;;5063718;28;20213;-72
2023/12/01 01:52:55;;;;;;;17.47;12.00;;;;;;;;;;5056261;28;20206;-71
2023/12/01 01:55:22;;;;;;;18.50;12.13;;;;;;;;;;5061550;28;20202;-72
2023/12/01 01:57:50;;;;;;;18.10;12.57;;;;;;;;;;5044922;28;20606;-72
2023/12/01 02:00:18;;;;;;;17.53;11.90;;;;;;;;;;5065677;28;20230;-74
2023/12/01 02:02:46;;;;;;;16.50;11.90;;;;;;;;;;5061910;28;20267;-72
2023/12/01 02:05:14;;;;;;;17.83;12.30;;;;;;;;;;5067546;28;20225;-73
2023/12/01 02:07:41;;;;;;;16.67;11.93;;;;;;;;;;5064216;28;20225;-72
2023/12/01 02:10:15;;;;;;;17.47;11.57;;;;;;;;;;5065308;28;20210;-73
2023/12/01 02:12:44;;;;;;;16.10;11.10;;;;;;;;;;5060724;28;20292;-73
2023/12/01 02:15:13;;;;;;;13.93;10.27;;;;;;;;;;5062237;28;20209;-73
2023/12/01 02:17:40;;;;;;;14.97;10.40;;;;;;;;;;5063311;28;20229;-72
2023/12/01 02:20:14;;;;;;;17.67;11.50;;;;;;;;;;5065278;28;20204;-73
2023/12/01 02:22:44;;;;;;;14.93;11.47;;;;;;;;;;5061794;28;20682;-71
2023/12/01 02:25:11;;;;;;;15.10;11.17;;;;;;;;;;5059687;28;20235;-73
2023/12/01 02:27:38;;;;;;;15.70;10.50;;;;;;;;;;5039977;28;20221;-73
2023/12/01 02:30:06;;;;;;;16.80;10.83;;;;;;;;;;5063734;28;20681;-74
2023/12/01 02:32:33;;;;;;;14.00;10.03;;;;;;;;;;5059141;28;20209;-72
2023/12/01 02:35:01;;;;;;;15.57;10.73;;;;;;;;;;5062958;28;20209;-70
2023/12/01 02:37:28;;;;;;;16.77;11.40;;;;;;;;;;5064381;28;20221;-72
2023/12/01 02:39:55;;;;;;;17.00;12.10;;;;;;;;;;5060484;28;20550;-73
2023/12/01 02:42:23;;;;;;;18.67;12.00;;;;;;;;;;5050996;28;20696;-72
2023/12/01 02:44:50;;;;;;;17.57;11.53;;;;;;;;;;5045894;28;20596;-73
2023/12/01 02:47:17;;;;;;;13.87;10.37;;;;;;;;;;5067355;28;20338;-72
2023/12/01 02:49:44;;;;;;;15.23;10.43;;;;;;;;;;5067869;28;20206;-73
2023/12/01 02:52:12;;;;;;;13.80;10.17;;;;;;;;;;5064180;28;20198;-73
2023/12/01 02:54:39;;;;;;;14.70;10.10;;;;;;;;;;5062715;28;20204;-71
2023/12/01 02:57:06;;;;;;;15.07;10.33;;;;;;;;;;5063910;28;20222;-73
2023/12/01 02:59:34;;;;;;;15.77;11.13;;;;;;;;;;5070734;28;20221;-72
2023/12/01 03:02:02;;;;;;;14.90;10.60;;;;;;;;;;5064098;28;20198;-73
2023/12/01 03:04:29;;;;;;;14.77;10.30;;;;;;;;;;5051228;28;20212;-71
2023/12/01 03:06:56;;;;;;;15.23;10.37;;;;;;;;;;5062973;28;20312;-73
2023/12/01 03:09:24;;;;;;;15.50;10.43;;;;;;;;;;5063453;28;20658;-74
2023/12/01 03:11:51;;;;;;;16.47;10.90;;;;;;;;;;5067657;28;20542;-72
2023/12/01 03:14:19;;;;;;;15.03;10.20;;;;;;;;;;5065676;28;20203;-73
2023/12/01 03:16:47;;;;;;;14.87;10.13;;;;;;;;;;5067133;28;20236;-70
2023/12/01 03:19:14;;;;;;;12.93;10.20;;;;;;;;;;5065148;28;20654;-72
2023/12/01 03:21:42;;;;;;;13.43;9.73;;;;;;;;;;5060636;28;20233;-72
2023/12/01 03:24:10;;;;;;;13.30;9.20;;;;;;;;;;5068957;28;20209;-71
2023/12/01 03:26:37;;;;;;;13.50;8.90;;;;;;;;;;5069107;28;20237;-72
2023/12/01 03:29:04;;;;;;;10.83;8.27;;;;;;;;;;5069770;28;20198;-73
2023/12/01 03:31:32;;;;;;;9.90;7.70;;;;;;;;;;5062038;28;20205;-72
2023/12/01 03:33:59;;;;;;;10.40;7.60;;;;;;;;;;5064317;28;20205;-71
2023/12/01 03:36:27;;;;;;;10.93;8.00;;;;;;;;;;5064324;28;20241;-73
2023/12/01 03:38:54;;;;;;;10.60;7.93;;;;;;;;;;5067171;28;20298;-72
2023/12/01 03:41:21;;;;;;;11.33;8.23;;;;;;;;;;5068722;28;20229;-72
2023/12/01 03:43:48;;;;;;;11.17;9.40;;;;;;;;;;5070411;28;20206;-74
2023/12/01 03:46:16;;;;;;;16.10;11.53;;;;;;;;;;5068788;28;20704;-74
2023/12/01 03:48:43;;;;;;;86.40;57.87;;;;;;;;;;5058556;28;20220;-72
2023/12/01 03:51:11;;;;;;;29.63;22.10;;;;;;;;;;5053738;28;20198;-72
2023/12/01 03:53:38;;;;;;;20.70;14.97;;;;;;;;;;5061537;28;20669;-71
2023/12/01 03:56:06;;;;;;;159.03;99.30;;;;;;;;;;5060358;28;20214;-71
2023/12/01 03:58:33;;;;;;;162.00;99.33;;;;;;;;;;5065741;28;20229;-71
2023/12/01 04:01:05;;;;;;;20.23;13.80;;;;;;;;;;5057587;28;20268;-72
2023/12/01 04:03:32;;;;;;;12.70;10.27;;;;;;;;;;5060791;28;20464;-73
2023/12/01 04:06:01;;;;;;;8.47;7.10;;;;;;;;;;5058016;28;20226;-71
2023/12/01 04:08:28;;;;;;;11.53;9.63;;;;;;;;;;5068009;28;20221;-71
2023/12/01 04:10:55;;;;;;;9.17;8.10;;;;;;;;;;5062349;28;20202;-71
2023/12/01 04:13:24;;;;;;;76.60;38.17;;;;;;;;;;5061203;28;20205;-72
2023/12/01 04:15:51;;;;;;;104.03;47.37;;;;;;;;;;5063056;28;20293;-72
2023/12/01 04:18:19;;;;;;;26.43;15.53;;;;;;;;;;5041982;28;20217;-72
2023/12/01 04:20:46;;;;;;;11.87;8.27;;;;;;;;;;5062057;28;20574;-71
2023/12/01 04:23:14;;;;;;;8.20;6.80;;;;;;;;;;5037459;28;20211;-72
2023/12/01 04:25:46;;;;;;;9.93;8.53;;;;;;;;;;5056182;28;20303;-73
2023/12/01 04:28:14;;;;;;;12.07;10.37;;;;;;;;;;5057564;28;20310;-73
2023/12/01 04:30:45;;;;;;;8.17;6.67;;;;;;;;;;5058529;28;20600;-73
2023/12/01 04:33:13;;;;;;;9.27;7.50;;;;;;;;;;5065755;28;20202;-72
2023/12/01 04:35:41;;;;;;;9.50;8.00;;;;;;;;;;5064358;28;20217;-71
2023/12/01 04:38:09;;;;;;;10.47;7.90;;;;;;;;;;5055710;28;20214;-72
2023/12/01 04:40:37;;;;;;;10.43;7.93;;;;;;;;;;5061655;28;20623;-72
2023/12/01 04:43:04;;;;;;;10.53;8.43;;;;;;;;;;5058179;28;20244;-72
2023/12/01 04:45:33;;;;;;;11.23;8.63;;;;;;;;;;5065461;28;20220;-72
2023/12/01 04:48:01;;;;;;;10.63;8.10;;;;;;;;;;5058027;28;20213;-73
2023/12/01 04:50:30;;;;;;;11.40;10.20;;;;;;;;;;5062572;28;20198;-72
2023/12/01 04:53:01;;;;;;;11.53;8.27;;;;;;;;;;5047800;28;20197;-73
2023/12/01 04:55:29;;;;;;;19.97;12.00;;;;;;;;;;5058549;28;20206;-73
2023/12/01 04:57:58;;;;;;;25.90;13.93;;;;;;;;;;5066634;28;20585;-72
2023/12/01 05:00:27;;;;;;;10.77;8.47;;;;;;;;;;5056495;28;20244;-71
2023/12/01 05:02:58;;;;;;;10.20;8.30;;;;;;;;;;5059916;28;20288;-72
2023/12/01 05:05:30;;;;;;;19.80;15.93;;;;;;;;;;5064808;28;20201;-71
2023/12/01 05:07:59;;;;;;;16.00;12.60;;;;;;;;;;5062821;28;20232;-72
2023/12/01 05:10:30;;;;;;;9.97;7.73;;;;;;;;;;5060976;28;20610;-72
2023/12/01 05:12:58;;;;;;;9.83;7.57;;;;;;;;;;5053362;28;20252;-71
2023/12/01 05:15:27;;;;;;;9.23;7.47;;;;;;;;;;5042521;28;20210;-72
2023/12/01 05:17:55;;;;;;;9.00;6.77;;;;;;;;;;5054107;28;20696;-72
2023/12/01 05:20:27;;;;;;;8.73;7.13;;;;;;;;;;5054127;28;20209;-73
2023/12/01 05:22:56;;;;;;;7.70;6.43;;;;;;;;;;5052758;28;20210;-72
2023/12/01 05:25:27;;;;;;;7.93;6.93;;;;;;;;;;5040017;28;20689;-71
2023/12/01 05:27:56;;;;;;;7.87;6.10;;;;;;;;;;5052674;28;20629;-71
2023/12/01 05:30:24;;;;;;;6.97;5.90;;;;;;;;;;5038673;28;20198;-71
2023/12/01 05:32:52;;;;;;;7.10;5.93;;;;;;;;;;5044601;28;20274;-71
2023/12/01 05:35:20;;;;;;;7.43;6.10;;;;;;;;;;5052685;28;20224;-72
2023/12/01 05:37:48;;;;;;;8.23;7.17;;;;;;;;;;5040343;28;20229;-73
2023/12/01 05:40:22;;;;;;;8.87;6.90;;;;;;;;;;5054322;28;20198;-71
2023/12/01 05:42:54;;;;;;;6.97;6.27;;;;;;;;;;5053614;28;20202;-71
2023/12/01 05:45:22;;;;;;;8.13;6.83;;;;;;;;;;5045226;28;21035;-71
2023/12/01 05:47:52;;;;;;;9.37;6.70;;;;;;;;;;5052859;28;20241;-72
2023/12/01 05:50:32;;;;;;;8.93;7.03;;;;;;;;;;5053647;28;20569;-72
2023/12/01 05:53:02;;;;;;;7.73;6.30;;;;;;;;;;5033304;28;20251;-73
2023/12/01 05:55:30;;;;;;;7.90;6.53;;;;;;;;;;5053259;28;20222;-72
2023/12/01 05:57:58;;;;;;;6.50;5.63;;;;;;;;;;5050907;28;20275;-73
2023/12/01 06:00:32;;;;;;;7.53;6.70;;;;;;;;;;5059513;28;20212;-74
2023/12/01 06:03:03;;;;;;;9.17;7.43;;;;;;;;;;5064806;28;20206;-73
2023/12/01 06:05:31;;;;;;;9.10;7.10;;;;;;;;;;5043861;28;20210;-72
2023/12/01 06:08:27;;;;;;;7.30;6.53;;;;;;;;;;5056821;28;20230;-71
2023/12/01 06:10:54;;;;;;;10.70;7.13;;;;;;;;;;5056415;28;20215;-72
2023/12/01 06:13:21;;;;;;;10.50;7.73;;;;;;;;;;5063788;28;20193;-72
2023/12/01 06:15:49;;;;;;;8.90;6.27;;;;;;;;;;5061088;28;20216;-72
2023/12/01 06:18:19;;;;;;;8.13;6.03;;;;;;;;;;5059506;28;20283;-72
2023/12/01 06:20:47;;;;;;;10.63;6.80;;;;;;;;;;5057180;28;20729;-72
2023/12/01 06:23:14;;;;;;;5.90;5.27;;;;;;;;;;5046971;28;20713;-72
2023/12/01 06:25:42;;;;;;;5.63;5.13;;;;;;;;;;5061618;28;20217;-72
2023/12/01 06:28:10;;;;;;;6.53;5.50;;;;;;;;;;5057544;28;20229;-71
2023/12/01 06:30:38;;;;;;;5.63;5.03;;;;;;;;;;5034911;28;20309;-73
2023/12/01 06:33:06;;;;;;;6.33;5.57;;;;;;;;;;5060073;28;20208;-72
2023/12/01 06:35:35;;;;;;;6.77;5.87;;;;;;;;;;5041623;28;20217;-73
2023/12/01 06:38:03;;;;;;;6.70;5.73;;;;;;;;;;5051071;28;20232;-72
2023/12/01 06:40:33;;;;;;;7.70;5.87;;;;;;;;;;5028831;28;20358;-72
2023/12/01 06:43:09;;;;;;;7.80;6.17;;;;;;;;;;5051668;28;20236;-73
2023/12/01 06:45:37;;;;;;;8.37;6.17;;;;;;;;;;5057712;28;20630;-73
2023/12/01 06:48:04;;;;;;;7.97;6.17;;;;;;;;;;5063666;28;20249;-72
2023/12/01 06:50:32;;;;;;;7.87;6.13;;;;;;;;;;5046004;28;20712;-72
2023/12/01 06:53:00;;;;;;;9.20;7.13;;;;;;;;;;5047457;28;20202;-72
2023/12/01 06:55:28;;;;;;;9.33;6.50;;;;;;;;;;5061419;28;20202;-73
2023/12/01 06:57:55;;;;;;;10.30;7.83;;;;;;;;;;5063006;28;20697;-72
2023/12/01 07:00:29;;;;;;;9.63;7.30;;;;;;;;;;5041920;28;20260;-73
2023/12/01 07:03:05;;;;;;;8.20;6.73;;;;;;;;;;5062128;28;20212;-72
2023/12/01 07:05:33;;;;;;;9.83;7.27;;;;;;;;;;5060240;28;20295;-72
2023/12/01 07:08:01;;;;;;;9.80;7.37;;;;;;;;;;5058578;28;20233;-73
2023/12/01 07:10:29;;;;;;;8.67;7.10;;;;;;;;;;5054757;28;20205;-73
2023/12/01 07:12:56;;;;;;;11.63;8.87;;;;;;;;;;5043636;28;20209;-72
2023/12/01 07:15:24;;;;;;;11.93;8.63;;;;;;;;;;5060003;28;20229;-72
2023/12/01 07:17:53;;;;;;;15.77;11.33;;;;;;;;;;5068049;28;20279;-72
2023/12/01 07:20:21;;;;;;;15.70;11.30;;;;;;;;;;5068381;28;20667;-72
2023/12/01 07:22:49;;;;;;;33.13;22.30;;;;;;;;;;5047137;28;20209;-72
2023/12/01 07:25:23;;;;;;;28.47;19.80;;;;;;;;;;5065559;28;20251;-73
2023/12/01 07:28:04;;;;;;;14.43;10.90;;;;;;;;;;5044962;28;20233;-73
2023/12/01 07:30:31;;;;;;;12.20;8.97;;;;;;;;;;5059821;28;20209;-72
2023/12/01 07:33:00;;;;;;;10.63;8.40;;;;;;;;;;5041814;28;20210;-72
2023/12/01 07:35:28;;;;;;;9.97;7.50;;;;;;;;;;5055467;28;20352;-73
2023/12/01 07:37:56;;;;;;;10.47;7.70;;;;;;;;;;5064189;28;20850;-72
2023/12/01 07:40:24;;;;;;;8.77;7.03;;;;;;;;;;5064868;28;20595;-72
2023/12/01 07:42:56;;;;;;;9.90;7.77;;;;;;;;;;5065026;28;20724;-70
2023/12/01 07:45:25;;;;;;;9.67;7.43;;;;;;;;;;5057876;28;20209;-72
2023/12/01 07:47:57;;;;;;;9.77;7.83;;;;;;;;;;5065709;28;20237;-73
2023/12/01 07:50:25;;;;;;;11.83;9.20;;;;;;;;;;5062966;28;20690;-72
2023/12/01 07:52:55;;;;;;;12.10;9.07;;;;;;;;;;5050187;28;20605;-75
2023/12/01 07:55:27;;;;;;;14.17;10.87;;;;;;;;;;5068950;28;20284;-72
2023/12/01 07:57:54;;;;;;;18.00;12.57;;;;;;;;;;5068283;28;20280;-72
2023/12/01 08:00:22;;;;;;;15.43;11.30;;;;;;;;;;5044021;28;20224;-73
2023/12/01 08:02:52;;;;;;;8.57;7.07;;;;;;;;;;5059216;28;20210;-73
2023/12/01 08:05:22;;;;;;;8.37;7.13;;;;;;;;;;5041005;28;20302;-72
2023/12/01 08:07:51;;;;;;;8.37;6.93;;;;;;;;;;5056947;28;20680;-72
2023/12/01 08:10:20;;;;;;;9.93;6.80;;;;;;;;;;5054890;28;20194;-71
2023/12/01 08:12:49;;;;;;;8.50;6.60;;;;;;;;;;5058029;28;20422;-72
2023/12/01 08:15:16;;;;;;;10.57;7.27;;;;;;;;;;5058257;28;20217;-72
2023/12/01 08:17:44;;;;;;;10.10;7.57;;;;;;;;;;5042186;28;20228;-73
2023/12/01 08:20:13;;;;;;;13.77;8.60;;;;;;;;;;5068032;28;20201;-73
2023/12/01 08:22:43;;;;;;;11.77;8.47;;;;;;;;;;5055318;28;20256;-72
2023/12/01 08:25:13;;;;;;;9.40;7.53;;;;;;;;;;5058500;28;20568;-72
2023/12/01 08:27:41;;;;;;;9.50;7.47;;;;;;;;;;5061914;28;20221;-72
2023/12/01 08:30:10;;;;;;;8.27;7.33;;;;;;;;;;5063224;28;20229;-72
2023/12/01 08:32:46;;;;;;;9.97;8.40;;;;;;;;;;5064620;28;20200;-73
2023/12/01 08:35:15;;;;;;;9.90;7.90;;;;;;;;;;5034553;28;20454;-72
2023/12/01 08:37:42;;;;;;;8.67;7.13;;;;;;;;;;5057412;28;20240;-73
2023/12/01 08:40:11;;;;;;;8.40;7.23;;;;;;;;;;5055752;28;20298;-71
2023/12/01 08:42:41;;;;;;;7.77;6.87;;;;;;;;;;5058005;28;20245;-72
2023/12/01 08:45:09;;;;;;;7.43;6.47;;;;;;;;;;5063193;28;20299;-71
2023/12/01 08:47:36;;;;;;;7.50;6.73;;;;;;;;;;5047847;28;20250;-71
2023/12/01 08:50:04;;;;;;;6.90;5.93;;;;;;;;;;5072092;28;20202;-73
2023/12/01 08:52:36;;;;;;;7.20;6.50;;;;;;;;;;5064403;28;20232;-72
2023/12/01 08:55:03;;;;;;;7.23;5.97;;;;;;;;;;5053109;28;20198;-73
2023/12/01 08:57:33;;;;;;;5.77;5.17;;;;;;;;;;5062813;28;20746;-71
2023/12/01 09:00:00;;;;;;;5.90;5.33;;;;;;;;;;5052514;28;21417;-71
2023/12/01 09:02:28;;;;;;;6.83;5.43;;;;;;;;;;5063669;28;20415;-73
2023/12/01 09:04:57;;;;;;;6.20;5.60;;;;;;;;;;5062607;28;20213;-70
2023/12/01 09:07:25;;;;;;;6.47;5.87;;;;;;;;;;5063614;28;20734;-74
2023/12/01 09:09:59;;;;;;;5.73;5.13;;;;;;;;;;5065440;28;20578;-71
2023/12/01 09:12:27;;;;;;;6.10;5.50;;;;;;;;;;5060985;28;20224;-71
2023/12/01 09:14:54;;;;;;;5.93;5.33;;;;;;;;;;5063478;28;20197;-73
2023/12/01 09:17:22;;;;;;;6.43;5.73;;;;;;;;;;5052459;28;20230;-71
2023/12/01 09:19:50;;;;;;;6.10;5.50;;;;;;;;;;5051030;28;20205;-72
2023/12/01 09:22:17;;;;;;;5.60;5.10;;;;;;;;;;5032972;28;20284;-72
2023/12/01 09:24:45;;;;;;;5.67;5.17;;;;;;;;;;5053813;28;20259;-71
2023/12/01 09:27:13;;;;;;;6.23;5.63;;;;;;;;;;5052060;28;20294;-71
2023/12/01 09:29:40;;;;;;;5.70;5.10;;;;;;;;;;5039567;28;20218;-71
2023/12/01 09:32:08;;;;;;;5.37;4.87;;;;;;;;;;5044144;28;20221;-73
2023/12/01 09:34:38;;;;;;;6.17;5.60;;;;;;;;;;5053858;28;20201;-73
2023/12/01 09:37:05;;;;;;;5.33;4.57;;;;;;;;;;5048041;28;20234;-71
2023/12/01 09:39:33;;;;;;;5.50;5.00;;;;;;;;;;5055868;28;20628;-72
2023/12/01 09:42:05;;;;;;;5.07;4.60;;;;;;;;;;5057130;28;20212;-73
2023/12/01 09:44:34;;;;;;;6.00;4.70;;;;;;;;;;5049156;28;20210;-73
2023/12/01 09:47:04;;;;;;;6.17;5.40;;;;;;;;;;5037416;28;20230;-73
2023/12/01 09:49:36;;;;;;;5.43;4.93;;;;;;;;;;5047924;28;20244;-71
2023/12/01 09:52:03;;;;;;;5.47;4.97;;;;;;;;;;5051899;28;20295;-71
2023/12/01 09:54:31;;;;;;;6.37;5.47;;;;;;;;;;5062639;28;20205;-72
2023/12/01 09:56:58;;;;;;;7.03;6.07;;;;;;;;;;5054955;28;20604;-72
2023/12/01 09:59:26;;;;;;;6.60;5.47;;;;;;;;;;5052095;28;20210;-72
2023/12/01 10:02:00;;;;;;;6.27;5.67;;;;;;;;;;5052257;28;20194;-72
2023/12/01 10:04:27;;;;;;;5.83;5.33;;;;;;;;;;5030736;28;20545;-73
2023/12/01 10:06:57;;;;;;;7.23;6.53;;;;;;;;;;5041407;28;20593;-73
2023/12/01 10:09:32;;;;;;;7.80;7.10;;;;;;;;;;5060427;28;20212;-71
2023/12/01 10:12:07;;;;;;;5.93;5.43;;;;;;;;;;5063830;28;20257;-71
2023/12/01 10:14:35;;;;;;;5.27;4.77;;;;;;;;;;5060016;28;20240;-72
2023/12/01 10:17:04;;;;;;;5.50;5.00;;;;;;;;;;5033014;28;20225;-74
2023/12/01 10:19:33;;;;;;;5.13;4.63;;;;;;;;;;5052746;28;20607;-73
2023/12/01 10:22:00;;;;;;;5.20;4.77;;;;;;;;;;5048162;28;20198;-71
2023/12/01 10:24:30;;;;;;;5.00;4.60;;;;;;;;;;5048632;28;20787;-72
2023/12/01 10:27:02;;;;;;;4.90;4.50;;;;;;;;;;5051359;28;20708;-71
2023/12/01 10:29:30;;;;;;;4.80;4.40;;;;;;;;;;5058541;28;20198;-72
2023/12/01 10:31:59;;;;;;;5.43;4.93;;;;;;;;;;5055501;28;20208;-72
2023/12/01 10:34:27;;;;;;;8.03;7.17;;;;;;;;;;5055814;28;20270;-73
2023/12/01 10:36:55;;;;;;;7.67;6.87;;;;;;;;;;5050443;28;20316;-74
2023/12/01 10:39:30;;;;;;;8.30;6.57;;;;;;;;;;5048334;28;20205;-71
2023/12/01 10:41:58;;;;;;;10.50;8.23;;;;;;;;;;5048247;28;20218;-71
2023/12/01 10:44:32;;;;;;;11.57;8.57;;;;;;;;;;5049529;28;20602;-73
2023/12/01 10:47:01;;;;;;;8.70;7.33;;;;;;;;;;5022562;28;20244;-73
2023/12/01 10:49:29;;;;;;;5.43;4.93;;;;;;;;;;5043997;28;20201;-72
2023/12/01 10:51:58;;;;;;;5.50;5.00;;;;;;;;;;5056690;28;20239;-71
2023/12/01 10:54:27;;;;;;;4.97;4.57;;;;;;;;;;5041322;28;20221;-74
2023/12/01 10:57:13;;;;;;;5.20;4.70;;;;;;;;;;5042462;28;20701;-72
2023/12/01 10:59:46;;;;;;;10.13;7.17;;;;;;;;;;5047002;28;20297;-73
2023/12/01 11:02:16;;;;;;;8.33;6.47;;;;;;;;;;5058357;28;20699;-72
2023/12/01 11:04:47;;;;;;;6.30;5.70;;;;;;;;;;5049029;28;20287;-75
2023/12/01 11:07:15;;;;;;;5.10;4.60;;;;;;;;;;5050038;28;20230;-73
2023/12/01 11:09:48;;;;;;;4.90;4.50;;;;;;;;;;5049998;28;20660;-74
2023/12/01 11:12:28;;;;;;;4.90;4.50;;;;;;;;;;5031901;28;20217;-76
2023/12/01 11:14:57;;;;;;;4.43;4.13;;;;;;;;;;5048868;28;20213;-74
2023/12/01 11:17:24;;;;;;;4.37;4.07;;;;;;;;;;5046173;28;20256;-76
2023/12/01 11:19:52;;;;;;;4.63;4.23;;;;;;;;;;5057132;28;20645;-74
2023/12/01 11:22:27;;;;;;;3.70;3.40;;;;;;;;;;5060964;28;20213;-74
2023/12/01 11:24:56;;;;;;;3.47;3.27;;;;;;;;;;5058858;28;20213;-72
2023/12/01 11:27:26;;;;;;;3.80;3.50;;;;;;;;;;5038740;28;20425;-72
2023/12/01 11:30:12;;;;;;;4.03;3.70;;;;;;;;;;5059891;28;20328;-75
2023/12/01 11:32:41;;;;;;;3.70;3.40;;;;;;;;;;5032034;28;20202;-75
2023/12/01 11:35:10;;;;;;;3.67;3.37;;;;;;;;;;5057226;28;20205;-73
2023/12/01 11:38:04;;;;;;;3.80;3.50;;;;;;;;;;5069432;28;20221;-74
2023/12/01 11:40:41;;;;;;;4.00;3.67;;;;;;;;;;5069699;28;20230;-74
2023/12/01 11:43:11;;;;;;;7.80;6.53;;;;;;;;;;5042342;28;20205;-71
2023/12/01 11:45:48;;;;;;;4.63;4.20;;;;;;;;;;5046370;28;20225;-73
2023/12/01 11:48:16;;;;;;;5.27;4.23;;;;;;;;;;5054229;28;20781;-73
2023/12/01 11:50:44;;;;;;;4.47;4.07;;;;;;;;;;5056974;28;20204;-71
2023/12/01 11:53:17;;;;;;;3.57;3.27;;;;;;;;;;5053803;28;20198;-73
2023/12/01 11:55:47;;;;;;;3.90;3.60;;;;;;;;;;5059483;28;20515;-75
2023/12/01 11:58:18;;;;;;;4.00;3.60;;;;;;;;;;5050541;28;22352;-73
2023/12/01 12:00:45;;;;;;;3.10;2.80;;;;;;;;;;5050597;28;20320;-73
2023/12/01 12:03:20;;;;;;;3.03;2.83;;;;;;;;;;5039638;28;20225;-75
2023/12/01 12:05:48;;;;;;;2.40;2.20;;;;;;;;;;5057515;28;20296;-71
2023/12/01 12:08:16;;;;;;;2.53;2.33;;;;;;;;;;5045843;28;20688;-75
2023/12/01 12:10:44;;;;;;;2.13;2.03;;;;;;;;;;5062022;28;20194;-72
2023/12/01 12:13:11;;;;;;;2.30;2.20;;;;;;;;;;5070033;28;20228;-73
2023/12/01 12:15:39;;;;;;;2.67;2.47;;;;;;;;;;5068838;28;20654;-74
2023/12/01 12:18:08;;;;;;;3.03;2.83;;;;;;;;;;5059056;28;20570;-75
2023/12/01 12:20:36;;;;;;;3.30;3.00;;;;;;;;;;5038924;28;20205;-72
2023/12/01 12:23:04;;;;;;;3.63;3.42;;;;;;;;;;5049120;28;20926;-74
2023/12/01 12:25:37;;;;;;;3.20;3.00;;;;;;;;;;5051760;28;22687;-73
2023/12/01 12:28:11;;;;;;;3.20;3.00;;;;;;;;;;5061109;28;20225;-71
2023/12/01 12:30:38;;;;;;;3.43;3.17;;;;;;;;;;5036069;28;20289;-71
2023/12/01 12:33:06;;;;;;;3.53;3.23;;;;;;;;;;5056301;28;20200;-71
2023/12/01 12:35:34;;;;;;;3.70;3.40;;;;;;;;;;5044260;28;20574;-71
2023/12/01 12:38:04;;;;;;;3.53;3.30;;;;;;;;;;5061210;28;20240;-73
2023/12/01 12:40:34;;;;;;;4.10;3.80;;;;;;;;;;5049892;28;20208;-75
2023/12/01 12:43:02;;;;;;;3.20;3.00;;;;;;;;;;5028097;28;20224;-71
2023/12/01 12:45:32;;;;;;;3.10;2.87;;;;;;;;;;5059308;28;20201;-73
2023/12/01 12:48:03;;;;;;;2.83;2.63;;;;;;;;;;5063113;28;20291;-74
2023/12/01 12:50:31;;;;;;;2.73;2.53;;;;;;;;;;5054396;28;20717;-76
2023/12/01 12:53:00;;;;;;;3.20;2.90;;;;;;;;;;5054052;28;20206;-76
2023/12/01 12:55:28;;;;;;;3.60;3.30;;;;;;;;;;5045211;28;20313;-72
2023/12/01 12:57:56;;;;;;;2.73;2.53;;;;;;;;;;5036799;28;20218;-73
2023/12/01 13:00:23;;;;;;;2.50;2.40;;;;;;;;;;5058994;28;20454;-73
2023/12/01 13:02:50;;;;;;;2.57;2.47;;;;;;;;;;5057192;28;20699;-74
2023/12/01 13:05:18;;;;;;;2.80;2.60;;;;;;;;;;5054794;28;20209;-71
2023/12/01 13:07:46;;;;;;;3.10;2.90;;;;;;;;;;5057412;28;20218;-72
2023/12/01 13:10:14;;;;;;;2.43;2.27;;;;;;;;;;5043160;28;20225;-71
2023/12/01 13:12:41;;;;;;;5.37;4.90;;;;;;;;;;5050331;28;20222;-72
2023/12/01 13:15:09;;;;;;;5.20;4.67;;;;;;;;;;5037889;28;20245;-75
2023/12/01 13:17:37;;;;;;;6.30;5.70;;;;;;;;;;5068126;28;20229;-72
2023/12/01 13:20:05;;;;;;;3.10;2.80;;;;;;;;;;5051925;28;20251;-72
2023/12/01 13:22:32;;;;;;;6.67;6.07;;;;;;;;;;5059231;28;20205;-73
2023/12/01 13:25:02;;;;;;;5.93;5.43;;;;;;;;;;5063993;28;20682;-73
2023/12/01 13:27:32;;;;;;;3.60;3.30;;;;;;;;;;5059697;28;20237;-75
2023/12/01 13:30:00;;;;;;;3.93;3.60;;;;;;;;;;5064518;28;20235;-73
2023/12/01 13:32:29;;;;;;;4.13;3.80;;;;;;;;;;5069634;28;20688;-70
2023/12/01 13:34:57;;;;;;;4.23;3.90;;;;;;;;;;5056760;28;20687;-71
2023/12/01 13:37:25;;;;;;;4.00;3.70;;;;;;;;;;5045941;28;20232;-72
2023/12/01 13:39:53;;;;;;;3.50;3.30;;;;;;;;;;5032518;28;20203;-73
2023/12/01 13:42:20;;;;;;;3.70;3.40;;;;;;;;;;5058083;28;20216;-74
2023/12/01 13:44:47;;;;;;;4.63;4.33;;;;;;;;;;5051245;28;20212;-72
2023/12/01 13:47:15;;;;;;;3.80;3.50;;;;;;;;;;5056230;28;20221;-72
2023/12/01 13:49:42;;;;;;;3.67;3.37;;;;;;;;;;5046377;28;20218;-71
2023/12/01 13:52:10;;;;;;;3.07;2.87;;;;;;;;;;5044624;28;20614;-73
2023/12/01 13:54:37;;;;;;;4.00;3.70;;;;;;;;;;5049435;28;20205;-72
2023/12/01 13:57:04;;;;;;;3.17;2.97;;;;;;;;;;5062873;28;20209;-73
2023/12/01 13:59:31;;;;;;;3.20;3.00;;;;;;;;;;5051963;28;20590;-73
2023/12/01 14:01:59;;;;;;;4.40;4.10;;;;;;;;;;5059729;28;20244;-73
2023/12/01 14:04:26;;;;;;;4.20;3.90;;;;;;;;;;5055212;28;20212;-73
2023/12/01 14:06:54;;;;;;;4.33;4.03;;;;;;;;;;5054476;28;20225;-75
2023/12/01 14:09:21;;;;;;;4.83;4.43;;;;;;;;;;5048776;28;20232;-72
2023/12/01 14:11:49;;;;;;;3.87;3.57;;;;;;;;;;5061562;28;20210;-74
2023/12/01 14:14:16;;;;;;;12.17;10.20;;;;;;;;;;5052570;28;20194;-73
2023/12/01 14:16:43;;;;;;;14.23;10.57;;;;;;;;;;5055404;28;20275;-72
2023/12/01 14:19:11;;;;;;;4.50;4.10;;;;;;;;;;5060037;28;20553;-75
2023/12/01 14:21:38;;;;;;;4.33;4.03;;;;;;;;;;5056789;28;20225;-73
2023/12/01 14:24:06;;;;;;;4.07;3.77;;;;;;;;;;5060505;28;20217;-70
2023/12/01 14:26:34;;;;;;;3.30;3.10;;;;;;;;;;5056987;28;20874;-72
2023/12/01 14:29:03;;;;;;;3.60;3.30;;;;;;;;;;5058812;28;20240;-73
2023/12/01 14:31:32;;;;;;;3.47;3.27;;;;;;;;;;5055067;28;20208;-72
2023/12/01 14:34:00;;;;;;;3.37;3.10;;;;;;;;;;5055065;28;20201;-73
2023/12/01 14:36:27;;;;;;;5.40;4.90;;;;;;;;;;5058513;28;20594;-76
2023/12/01 14:38:55;;;;;;;25.90;16.10;;;;;;;;;;5060506;28;20260;-73
2023/12/01 14:41:22;;;;;;;6.03;5.40;;;;;;;;;;5068306;28;20661;-72
2023/12/01 14:43:49;;;;;;;13.23;9.43;;;;;;;;;;5070779;28;20206;-72